createdAt,value
2018-11-12T00:00:42.274Z,16.17
2018-11-12T00:02:17.168Z,17.00
2018-11-12T00:03:52.018Z,18.23
2018-11-12T00:05:27.094Z,18.13
2018-11-12T00:07:02.031Z,20.23
2018-11-12T00:08:36.959Z,18.03
2018-11-12T00:10:11.823Z,17.70
2018-11-12T00:11:46.908Z,17.33
2018-11-12T00:13:21.775Z,17.37
2018-11-12T00:14:56.818Z,16.70
2018-11-12T00:16:31.703Z,16.67
2018-11-12T00:18:06.787Z,15.97
2018-11-12T00:19:41.870Z,16.73
2018-11-12T00:21:16.779Z,16.90
2018-11-12T00:22:51.659Z,16.07
2018-11-12T00:24:26.563Z,16.27
2018-11-12T00:26:01.455Z,15.43
2018-11-12T00:27:36.640Z,16.10
2018-11-12T00:29:11.550Z,15.57
2018-11-12T00:30:46.521Z,16.33
2018-11-12T00:32:21.395Z,15.60
2018-11-12T00:33:56.310Z,17.57
2018-11-12T00:35:31.223Z,17.27
2018-11-12T00:37:06.151Z,16.37
2018-11-12T00:38:41.135Z,16.43
2018-11-12T00:40:17.299Z,16.90
2018-11-12T00:41:52.220Z,16.00
2018-11-12T00:43:27.129Z,16.97
2018-11-12T00:45:02.041Z,16.23
2018-11-12T00:46:36.899Z,15.00
2018-11-12T00:48:11.778Z,16.27
2018-11-12T00:49:46.714Z,14.77
2018-11-12T00:51:21.700Z,15.93
2018-11-12T00:52:56.571Z,14.83
2018-11-12T00:54:31.550Z,16.20
2018-11-12T00:56:06.772Z,15.43
2018-11-12T00:57:42.078Z,15.37
2018-11-12T00:59:16.970Z,15.90
2018-11-12T01:00:51.882Z,15.70
2018-11-12T01:02:26.791Z,16.20
2018-11-12T01:04:01.750Z,16.87
2018-11-12T01:05:36.645Z,16.40
2018-11-12T01:07:11.525Z,17.10
2018-11-12T01:08:46.468Z,17.40
2018-11-12T01:10:21.374Z,16.13
2018-11-12T01:11:56.242Z,17.83
2018-11-12T01:13:31.099Z,17.73
2018-11-12T01:15:08.059Z,16.67
2018-11-12T01:16:43.011Z,16.73
2018-11-12T01:18:17.900Z,16.93
2018-11-12T01:19:52.821Z,17.03
2018-11-12T01:21:27.699Z,15.90
2018-11-12T01:23:02.587Z,16.80
2018-11-12T01:24:38.239Z,14.13
2018-11-12T01:26:13.203Z,13.03
2018-11-12T01:27:48.137Z,12.83
2018-11-12T01:29:23.004Z,13.87
2018-11-12T01:31:04.702Z,12.20
2018-11-12T01:32:39.856Z,13.77
2018-11-12T01:34:14.711Z,12.37
2018-11-12T01:35:49.715Z,14.87
2018-11-12T01:37:24.675Z,14.23
2018-11-12T01:38:59.537Z,13.27
2018-11-12T01:40:34.520Z,14.10
2018-11-12T01:42:09.492Z,15.10
2018-11-12T01:43:44.307Z,14.33
2018-11-12T01:45:20.587Z,15.13
2018-11-12T01:46:55.719Z,16.97
2018-11-12T01:48:30.595Z,16.30
2018-11-12T01:50:06.941Z,15.60
2018-11-12T01:51:41.826Z,17.57
2018-11-12T01:53:16.694Z,16.23
2018-11-12T01:54:51.575Z,16.37
2018-11-12T01:56:26.512Z,16.70
2018-11-12T01:58:01.401Z,16.00
2018-11-12T01:59:36.260Z,16.83
2018-11-12T02:01:11.179Z,15.10
2018-11-12T02:02:47.099Z,14.93
2018-11-12T02:04:22.016Z,14.47
2018-11-12T02:06:03.343Z,13.97
2018-11-12T02:07:38.227Z,14.03
2018-11-12T02:09:13.577Z,11.00
2018-11-12T02:10:48.553Z,13.17
2018-11-12T02:12:23.448Z,11.77
2018-11-12T02:13:58.334Z,12.13
2018-11-12T02:15:33.278Z,13.03
2018-11-12T02:17:08.180Z,12.63
2018-11-12T02:18:43.057Z,13.63
2018-11-12T02:20:19.212Z,14.07
2018-11-12T02:21:54.169Z,13.47
2018-11-12T02:23:29.116Z,13.23
2018-11-12T02:25:04.172Z,12.77
2018-11-12T02:26:39.070Z,13.00
2018-11-12T02:28:13.934Z,13.63
2018-11-12T02:29:55.544Z,15.63
2018-11-12T02:31:30.524Z,15.53
2018-11-12T02:33:05.620Z,15.37
2018-11-12T02:34:40.442Z,14.87
2018-11-12T02:36:15.419Z,13.90
2018-11-12T02:37:50.310Z,14.33
2018-11-12T02:39:25.275Z,14.57
2018-11-12T02:41:00.167Z,13.53
2018-11-12T02:42:35.320Z,13.57
2018-11-12T02:44:10.306Z,13.43
2018-11-12T02:45:45.196Z,12.10
2018-11-12T02:47:20.119Z,12.77
2018-11-12T02:48:54.996Z,15.17
2018-11-12T02:50:29.920Z,14.90
2018-11-12T02:52:05.041Z,14.10
2018-11-12T02:53:40.039Z,13.87
2018-11-12T02:55:15.835Z,14.53
2018-11-12T02:56:50.808Z,13.97
2018-11-12T02:58:25.762Z,13.13
2018-11-12T03:00:00.879Z,12.13
2018-11-12T03:01:35.758Z,13.10
2018-11-12T03:03:10.606Z,12.53
2018-11-12T03:04:45.492Z,13.10
2018-11-12T03:06:20.713Z,13.80
2018-11-12T03:07:55.667Z,12.77
2018-11-12T03:09:30.594Z,12.20
2018-11-12T03:11:05.809Z,11.83
2018-11-12T03:12:40.969Z,12.83
2018-11-12T03:14:15.861Z,12.37
2018-11-12T03:15:50.813Z,10.97
2018-11-12T03:17:25.679Z,12.63
2018-11-12T03:19:00.655Z,12.97
2018-11-12T03:20:35.543Z,12.63
2018-11-12T03:22:10.506Z,12.33
2018-11-12T03:23:45.383Z,11.50
2018-11-12T03:25:21.326Z,12.60
2018-11-12T03:26:56.242Z,13.23
2018-11-12T03:28:31.129Z,13.53
2018-11-12T03:30:07.062Z,14.10
2018-11-12T03:31:41.992Z,15.03
2018-11-12T03:33:16.871Z,13.43
2018-11-12T03:34:51.746Z,13.10
2018-11-12T03:36:26.676Z,12.80
2018-11-12T03:38:01.547Z,11.93
2018-11-12T03:39:36.597Z,12.40
2018-11-12T03:41:11.449Z,10.10
2018-11-12T03:42:48.675Z,12.03
2018-11-12T03:44:23.558Z,11.73
2018-11-12T03:45:58.471Z,12.03
2018-11-12T03:47:33.335Z,11.33
2018-11-12T03:49:08.231Z,11.10
2018-11-12T03:50:43.224Z,12.70
2018-11-12T03:52:18.129Z,12.47
2018-11-12T03:53:53.076Z,13.67
2018-11-12T03:55:28.025Z,13.00
2018-11-12T03:57:02.943Z,11.67
2018-11-12T03:58:37.887Z,12.50
2018-11-12T04:00:15.739Z,11.77
2018-11-12T04:01:50.657Z,11.73
2018-11-12T04:03:25.574Z,10.93
2018-11-12T04:05:00.430Z,11.73
2018-11-12T04:06:35.486Z,11.70
2018-11-12T04:08:10.403Z,12.03
2018-11-12T04:09:45.329Z,11.27
2018-11-12T04:11:20.248Z,11.33
2018-11-12T04:12:55.185Z,11.07
2018-11-12T04:14:30.044Z,11.40
2018-11-12T04:16:05.098Z,12.27
2018-11-12T04:17:40.040Z,12.33
2018-11-12T04:19:14.923Z,10.30
2018-11-12T04:20:49.914Z,10.60
2018-11-12T04:22:24.788Z,11.20
2018-11-12T04:23:59.619Z,11.27
2018-11-12T04:25:37.045Z,12.17
2018-11-12T04:27:11.987Z,10.73
2018-11-12T04:28:46.873Z,10.97
2018-11-12T04:30:21.766Z,10.53
2018-11-12T04:31:56.687Z,11.03
2018-11-12T04:33:31.587Z,11.37
2018-11-12T04:35:06.817Z,11.23
2018-11-12T04:36:41.730Z,10.93
2018-11-12T04:38:16.736Z,11.20
2018-11-12T04:39:51.634Z,10.70
2018-11-12T04:41:26.538Z,10.07
2018-11-12T04:43:01.468Z,11.13
2018-11-12T04:44:36.328Z,11.03
2018-11-12T04:46:11.247Z,11.47
2018-11-12T04:47:46.978Z,9.93
2018-11-12T04:49:21.910Z,9.73
2018-11-12T04:50:56.776Z,10.40
2018-11-12T04:52:31.694Z,9.30
2018-11-12T04:54:06.562Z,10.20
2018-11-12T04:55:41.462Z,10.20
2018-11-12T04:57:16.363Z,10.07
2018-11-12T04:58:51.401Z,10.80
2018-11-12T05:00:27.651Z,10.33
2018-11-12T05:02:02.602Z,9.33
2018-11-12T05:03:37.398Z,9.50
2018-11-12T05:05:14.351Z,9.80
2018-11-12T05:06:49.439Z,9.87
2018-11-12T05:08:24.508Z,10.00
2018-11-12T05:09:59.391Z,10.17
2018-11-12T05:11:34.283Z,10.90
2018-11-12T05:13:09.309Z,9.50
2018-11-12T05:14:44.143Z,9.97
2018-11-12T05:16:19.158Z,9.00
2018-11-12T05:17:54.167Z,9.63
2018-11-12T05:19:29.115Z,10.83
2018-11-12T05:21:04.098Z,10.50
2018-11-12T05:22:39.255Z,9.37
2018-11-12T05:24:14.135Z,10.17
2018-11-12T05:25:49.143Z,9.77
2018-11-12T05:27:24.099Z,9.80
2018-11-12T05:28:58.970Z,9.00
2018-11-12T05:30:33.850Z,11.30
2018-11-12T05:32:08.822Z,10.37
2018-11-12T05:33:43.702Z,9.77
2018-11-12T05:35:19.879Z,9.90
2018-11-12T05:36:54.848Z,10.40
2018-11-12T05:38:29.715Z,10.57
2018-11-12T05:40:06.408Z,10.37
2018-11-12T05:41:41.306Z,10.17
2018-11-12T05:43:16.159Z,11.00
2018-11-12T05:44:51.184Z,11.50
2018-11-12T05:46:26.062Z,11.30
2018-11-12T05:48:00.941Z,10.80
2018-11-12T05:49:35.792Z,10.97
2018-11-12T05:51:10.651Z,13.30
2018-11-12T05:52:46.992Z,10.07
2018-11-12T05:54:22.040Z,11.13
2018-11-12T05:55:56.935Z,11.30
2018-11-12T05:57:31.894Z,11.23
2018-11-12T05:59:06.820Z,10.57
2018-11-12T06:00:41.736Z,10.13
2018-11-12T06:02:16.631Z,9.87
2018-11-12T06:03:51.519Z,11.07
2018-11-12T06:05:26.438Z,8.90
2018-11-12T06:07:01.446Z,8.10
2018-11-12T06:08:36.390Z,8.83
2018-11-12T06:10:14.038Z,8.97
2018-11-12T06:11:49.023Z,13.33
2018-11-12T06:13:24.012Z,9.10
2018-11-12T06:14:58.872Z,9.40
2018-11-12T06:16:33.782Z,9.17
2018-11-12T06:18:08.805Z,9.70
2018-11-12T06:19:43.598Z,8.83
2018-11-12T06:21:18.452Z,8.83
2018-11-12T06:22:53.476Z,6.93
2018-11-12T06:24:28.321Z,12.37
2018-11-12T06:26:03.196Z,7.87
2018-11-12T06:27:38.113Z,9.33
2018-11-12T06:29:13.091Z,8.43
2018-11-12T06:30:48.024Z,8.03
2018-11-12T06:32:22.924Z,8.67
2018-11-12T06:33:57.876Z,8.53
2018-11-12T06:35:32.768Z,7.50
2018-11-12T06:37:07.723Z,6.20
2018-11-12T06:38:42.651Z,7.10
2018-11-12T06:40:18.823Z,6.50
2018-11-12T06:41:53.833Z,7.27
2018-11-12T06:43:28.699Z,8.80
2018-11-12T06:45:03.682Z,7.03
2018-11-12T06:46:38.592Z,6.30
2018-11-12T06:48:13.522Z,6.30
2018-11-12T06:49:48.394Z,7.07
2018-11-12T06:51:23.336Z,6.60
2018-11-12T06:52:58.548Z,8.43
2018-11-12T06:54:33.467Z,10.57
2018-11-12T06:56:08.355Z,9.13
2018-11-12T06:57:43.686Z,6.37
2018-11-12T06:59:18.611Z,6.07
2018-11-12T07:00:53.488Z,5.90
2018-11-12T07:02:30.443Z,6.13
2018-11-12T07:04:05.559Z,6.07
2018-11-12T07:05:40.477Z,6.20
2018-11-12T07:07:15.404Z,10.90
2018-11-12T07:08:50.460Z,7.13
2018-11-12T07:10:26.341Z,7.30
2018-11-12T07:12:06.835Z,6.50
2018-11-12T07:13:57.554Z,6.23
2018-11-12T07:15:47.430Z,6.27
2018-11-12T07:17:28.045Z,6.10
2018-11-12T07:19:21.808Z,5.50
2018-11-12T07:20:56.709Z,5.67
2018-11-12T07:22:31.643Z,5.17
2018-11-12T07:24:06.874Z,5.13
2018-11-12T07:25:41.759Z,4.73
2018-11-12T07:27:16.883Z,4.67
2018-11-12T07:28:51.796Z,7.43
2018-11-12T07:30:27.606Z,5.60
2018-11-12T07:32:02.552Z,6.63
2018-11-12T07:33:37.494Z,8.13
2018-11-12T07:35:13.715Z,7.63
2018-11-12T07:36:48.609Z,6.43
2018-11-12T07:38:23.607Z,6.23
2018-11-12T07:39:58.475Z,5.30
2018-11-12T07:41:33.329Z,6.50
2018-11-12T07:43:08.238Z,4.93
2018-11-12T07:44:43.182Z,6.27
2018-11-12T07:46:18.046Z,5.10
2018-11-12T07:47:53.862Z,4.70
2018-11-12T07:49:28.771Z,5.03
2018-11-12T07:51:03.631Z,4.50
2018-11-12T07:52:38.808Z,5.57
2018-11-12T07:54:13.703Z,3.40
2018-11-12T07:55:48.622Z,4.27
2018-11-12T07:57:23.522Z,3.10
2018-11-12T07:58:58.432Z,4.00
2018-11-12T08:00:34.473Z,3.43
2018-11-12T08:02:09.351Z,3.50
2018-11-12T08:03:44.423Z,3.23
2018-11-12T08:05:19.359Z,3.73
2018-11-12T08:06:54.288Z,3.97
2018-11-12T08:08:29.180Z,3.63
2018-11-12T08:10:04.320Z,4.60
2018-11-12T08:11:39.226Z,3.97
2018-11-12T08:13:14.159Z,4.60
2018-11-12T08:14:49.209Z,3.90
2018-11-12T08:16:24.867Z,3.80
2018-11-12T08:18:00.530Z,3.90
2018-11-12T08:19:35.472Z,3.30
2018-11-12T08:21:10.438Z,3.90
2018-11-12T08:22:46.938Z,3.80
2018-11-12T08:24:21.900Z,3.90
2018-11-12T08:25:56.743Z,3.87
2018-11-12T08:27:31.897Z,3.83
2018-11-12T08:29:06.838Z,3.70
2018-11-12T08:30:41.695Z,3.33
2018-11-12T08:32:16.566Z,3.50
2018-11-12T08:33:51.490Z,3.70
2018-11-12T08:35:26.686Z,3.97
2018-11-12T08:37:01.605Z,3.93
2018-11-12T08:38:36.570Z,3.57
2018-11-12T08:40:13.116Z,4.00
2018-11-12T08:41:47.984Z,4.30
2018-11-12T08:43:22.868Z,3.50
2018-11-12T08:44:57.765Z,3.67
2018-11-12T08:46:32.633Z,3.30
2018-11-12T08:48:07.556Z,3.93
2018-11-12T08:49:42.535Z,3.07
2018-11-12T08:51:17.339Z,3.17
2018-11-12T08:52:53.031Z,2.97
2018-11-12T08:54:27.995Z,3.20
2018-11-12T08:56:02.932Z,6.93
2018-11-12T08:57:38.158Z,3.00
2018-11-12T08:59:13.092Z,3.17
2018-11-12T09:00:48.052Z,3.07
2018-11-12T09:02:22.867Z,3.47
2018-11-12T09:03:57.744Z,3.30
2018-11-12T09:05:32.689Z,3.50
2018-11-12T09:07:07.718Z,3.37
2018-11-12T09:08:42.585Z,3.23
2018-11-12T09:10:20.438Z,2.80
2018-11-12T09:11:55.331Z,2.50
2018-11-12T09:13:30.254Z,2.73
2018-11-12T09:15:05.963Z,2.50
2018-11-12T09:16:40.829Z,3.40
2018-11-12T09:18:15.751Z,2.60
2018-11-12T09:19:50.711Z,2.70
2018-11-12T09:21:25.656Z,3.17
2018-11-12T09:23:00.508Z,2.33
2018-11-12T09:24:35.574Z,4.30
2018-11-12T09:26:10.434Z,3.73
2018-11-12T09:27:45.584Z,3.37
2018-11-12T09:29:20.520Z,2.97
2018-11-12T09:30:56.696Z,2.77
2018-11-12T09:32:30.407Z,3.37
2018-11-12T09:34:05.833Z,3.33
2018-11-12T09:35:40.762Z,3.37
2018-11-12T09:37:15.722Z,3.70
2018-11-12T09:38:50.760Z,2.90
2018-11-12T09:40:32.187Z,3.30
2018-11-12T09:42:07.089Z,2.90
2018-11-12T09:43:42.050Z,2.90
2018-11-12T09:45:16.937Z,3.60
2018-11-12T09:46:51.867Z,2.83
2018-11-12T09:48:26.746Z,3.37
2018-11-12T09:50:01.729Z,3.00
2018-11-12T09:51:36.626Z,3.00
2018-11-12T09:53:11.663Z,2.73
2018-11-12T09:54:46.877Z,2.73
2018-11-12T09:56:21.818Z,2.87
2018-11-12T09:57:58.279Z,3.57
2018-11-12T09:59:33.239Z,3.00
2018-11-12T10:01:08.278Z,3.07
2018-11-12T10:02:45.384Z,3.37
2018-11-12T10:04:20.196Z,3.13
2018-11-12T10:05:56.042Z,2.40
2018-11-12T10:07:31.709Z,2.73
2018-11-12T10:09:10.183Z,3.27
2018-11-12T10:10:48.796Z,2.77
2018-11-12T10:12:23.021Z,2.63
2018-11-12T10:13:57.595Z,2.53
2018-11-12T10:15:33.675Z,2.80
2018-11-12T10:17:08.687Z,3.13
2018-11-12T10:18:40.940Z,3.30
2018-11-12T10:20:15.961Z,3.00
2018-11-12T10:21:50.839Z,3.70
2018-11-12T10:23:25.745Z,3.03
2018-11-12T10:25:00.660Z,3.50
2018-11-12T10:26:35.617Z,3.20
2018-11-12T10:28:10.515Z,3.37
2018-11-12T10:29:45.386Z,3.77
2018-11-12T10:31:27.009Z,3.57
2018-11-12T10:33:01.996Z,3.43
2018-11-12T10:34:36.892Z,3.27
2018-11-12T10:36:11.813Z,3.27
2018-11-12T10:37:46.782Z,3.10
2018-11-12T10:39:21.676Z,3.90
2018-11-12T10:40:56.748Z,3.47
2018-11-12T10:42:31.713Z,4.00
2018-11-12T10:44:06.707Z,4.60
2018-11-12T10:45:41.819Z,4.50
2018-11-12T10:47:16.761Z,4.03
2018-11-12T10:48:51.685Z,3.40
2018-11-12T10:50:26.638Z,4.10
2018-11-12T10:52:01.515Z,3.20
2018-11-12T10:53:36.487Z,4.33
2018-11-12T10:55:13.274Z,3.80
2018-11-12T10:56:48.051Z,3.60
2018-11-12T10:58:22.996Z,4.00
2018-11-12T10:59:58.024Z,3.77
2018-11-12T11:01:38.376Z,3.60
2018-11-12T11:03:19.015Z,4.23
2018-11-12T11:04:53.895Z,3.50
2018-11-12T11:06:28.822Z,3.80
2018-11-12T11:08:03.831Z,3.60
2018-11-12T11:09:38.738Z,3.13
2018-11-12T11:11:13.637Z,3.60
2018-11-12T11:12:48.543Z,3.60
2018-11-12T11:14:23.455Z,3.33
2018-11-12T11:15:58.489Z,3.50
2018-11-12T11:17:33.629Z,3.57
2018-11-12T11:19:08.958Z,3.30
2018-11-12T11:20:44.348Z,3.27
2018-11-12T11:22:19.264Z,3.10
2018-11-12T11:23:54.186Z,3.50
2018-11-12T11:25:29.205Z,3.30
2018-11-12T11:27:04.147Z,3.10
2018-11-12T11:28:39.111Z,3.07
2018-11-12T11:30:15.314Z,3.30
2018-11-12T11:31:50.265Z,3.00
2018-11-12T11:33:25.171Z,2.80
2018-11-12T11:35:00.051Z,3.20
2018-11-12T11:36:34.959Z,2.97
2018-11-12T11:38:09.807Z,3.10
2018-11-12T11:39:44.777Z,2.43
2018-11-12T11:41:19.656Z,2.80
2018-11-12T11:42:54.548Z,3.10
2018-11-12T11:44:29.516Z,3.40
2018-11-12T11:46:04.520Z,3.97
2018-11-12T11:47:40.092Z,3.37
2018-11-12T11:49:15.045Z,5.13
2018-11-12T11:50:49.885Z,2.77
2018-11-12T11:52:24.787Z,3.57
2018-11-12T11:53:59.679Z,4.37
2018-11-12T11:55:34.599Z,3.07
2018-11-12T11:57:09.718Z,2.80
2018-11-12T11:58:44.596Z,2.77
2018-11-12T12:00:23.727Z,2.90
2018-11-12T12:01:58.652Z,2.43
2018-11-12T12:03:33.569Z,2.77
2018-11-12T12:05:09.876Z,2.97
2018-11-12T12:06:44.990Z,2.27
2018-11-12T12:08:19.906Z,2.70
2018-11-12T12:09:54.787Z,3.00
2018-11-12T12:11:29.746Z,2.20
2018-11-12T12:13:04.729Z,2.57
2018-11-12T12:14:39.791Z,2.30
2018-11-12T12:16:14.712Z,2.27
2018-11-12T12:17:49.775Z,2.00
2018-11-12T12:19:24.682Z,2.37
2018-11-12T12:20:59.584Z,2.30
2018-11-12T12:22:34.519Z,1.73
2018-11-12T12:24:09.550Z,2.00
2018-11-12T12:25:44.492Z,2.20
2018-11-12T12:27:19.359Z,1.90
2018-11-12T12:28:54.285Z,2.10
2018-11-12T12:30:29.452Z,2.03
2018-11-12T12:32:04.388Z,2.30
2018-11-12T12:33:39.249Z,2.00
2018-11-12T12:35:14.496Z,1.93
2018-11-12T12:36:49.499Z,2.37
2018-11-12T12:38:24.330Z,2.23
2018-11-12T12:39:59.240Z,2.10
2018-11-12T12:41:34.244Z,2.20
2018-11-12T12:43:09.230Z,2.40
2018-11-12T12:44:44.379Z,2.03
2018-11-12T12:46:19.320Z,2.37
2018-11-12T12:47:54.771Z,2.70
2018-11-12T12:49:29.685Z,2.23
2018-11-12T12:51:04.723Z,2.20
2018-11-12T12:52:39.779Z,2.23
2018-11-12T12:54:14.867Z,2.43
2018-11-12T12:55:50.193Z,1.90
2018-11-12T12:57:25.078Z,2.17
2018-11-12T12:59:00.031Z,2.17
2018-11-12T13:00:35.081Z,2.40
2018-11-12T13:02:09.989Z,2.00
2018-11-12T13:03:44.920Z,2.13
2018-11-12T13:05:19.855Z,2.30
2018-11-12T13:06:54.783Z,2.60
2018-11-12T13:08:29.679Z,2.30
2018-11-12T13:10:05.816Z,1.97
2018-11-12T13:11:40.820Z,2.20
2018-11-12T13:13:15.843Z,2.00
2018-11-12T13:14:51.359Z,2.20
2018-11-12T13:16:26.235Z,2.33
2018-11-12T13:18:01.248Z,1.97
2018-11-12T13:19:36.253Z,2.10
2018-11-12T13:21:11.217Z,1.90
2018-11-12T13:22:46.924Z,2.60
2018-11-12T13:24:23.026Z,4.67
2018-11-12T13:25:57.927Z,4.80
2018-11-12T13:27:32.860Z,5.47
2018-11-12T13:29:08.287Z,5.27
2018-11-12T13:30:43.148Z,6.57
2018-11-12T13:32:18.388Z,6.37
2018-11-12T13:33:53.380Z,5.93
2018-11-12T13:35:28.278Z,5.33
2018-11-12T13:37:03.176Z,6.03
2018-11-12T13:38:38.912Z,6.27
2018-11-12T13:40:16.804Z,6.30
2018-11-12T13:41:51.870Z,5.67
2018-11-12T13:43:33.573Z,6.30
2018-11-12T13:45:09.613Z,6.40
2018-11-12T13:46:50.119Z,5.87
2018-11-12T13:48:25.053Z,5.60
2018-11-12T13:50:00.119Z,5.57
2018-11-12T13:51:34.995Z,5.47
2018-11-12T13:53:10.066Z,6.03
2018-11-12T13:54:44.972Z,5.37
2018-11-12T13:56:19.902Z,5.23
2018-11-12T13:57:55.030Z,5.67
2018-11-12T13:59:29.917Z,6.93
2018-11-12T14:01:04.907Z,6.57
2018-11-12T14:02:40.205Z,6.10
2018-11-12T14:04:15.151Z,6.03
2018-11-12T14:05:50.216Z,6.67
2018-11-12T14:07:25.145Z,6.20
2018-11-12T14:09:00.058Z,6.80
2018-11-12T14:10:34.958Z,7.17
2018-11-12T14:12:09.952Z,6.07
2018-11-12T14:13:45.579Z,6.00
2018-11-12T14:15:21.633Z,6.07
2018-11-12T14:16:56.591Z,6.43
2018-11-12T14:18:31.590Z,6.77
2018-11-12T14:20:07.239Z,6.80
2018-11-12T14:21:42.344Z,6.97
2018-11-12T14:23:17.116Z,5.97
2018-11-12T14:24:51.991Z,7.00
2018-11-12T14:26:27.203Z,7.17
2018-11-12T14:28:02.319Z,6.37
2018-11-12T14:29:37.426Z,7.30
2018-11-12T14:31:12.364Z,7.23
2018-11-12T14:32:47.291Z,6.97
2018-11-12T14:34:22.302Z,7.70
2018-11-12T14:35:57.272Z,6.30
2018-11-12T14:37:32.208Z,7.53
2018-11-12T14:39:09.341Z,7.83
2018-11-12T14:40:44.221Z,7.77
2018-11-12T14:42:19.132Z,7.13
2018-11-12T14:43:54.112Z,7.60
2018-11-12T14:45:29.037Z,8.60
2018-11-12T14:47:03.913Z,8.60
2018-11-12T14:48:38.881Z,8.50
2018-11-12T14:50:13.722Z,8.93
2018-11-12T14:51:48.614Z,8.83
2018-11-12T14:53:23.550Z,9.47
2018-11-12T14:54:58.533Z,9.23
2018-11-12T14:56:33.420Z,8.87
2018-11-12T14:58:08.350Z,8.83
2018-11-12T14:59:44.158Z,9.07
2018-11-12T15:01:19.207Z,10.20
2018-11-12T15:02:54.514Z,9.13
2018-11-12T15:04:29.482Z,9.37
2018-11-12T15:06:04.799Z,8.93
2018-11-12T15:07:39.727Z,10.07
2018-11-12T15:09:14.710Z,9.63
2018-11-12T15:10:49.636Z,10.63
2018-11-12T15:12:24.513Z,10.37
2018-11-12T15:13:59.456Z,10.43
2018-11-12T15:15:34.378Z,10.37
2018-11-12T15:17:09.384Z,10.43
2018-11-12T15:18:44.412Z,10.57
2018-11-12T15:20:20.048Z,10.77
2018-11-12T15:21:54.923Z,10.93
2018-11-12T15:23:29.900Z,11.67
2018-11-12T15:25:06.570Z,11.23
2018-11-12T15:26:41.523Z,23.23
2018-11-12T15:28:16.378Z,20.60
2018-11-12T15:29:51.449Z,11.10
2018-11-12T15:31:26.369Z,12.30
2018-11-12T15:33:01.364Z,10.93
2018-11-12T15:34:36.269Z,10.83
2018-11-12T15:36:11.144Z,11.00
2018-11-12T15:37:46.622Z,10.93
2018-11-12T15:39:21.586Z,11.10
2018-11-12T15:40:56.653Z,11.23
2018-11-12T15:42:31.592Z,11.33
2018-11-12T15:44:06.793Z,11.03
2018-11-12T15:45:41.707Z,11.07
2018-11-12T15:47:16.599Z,10.43
2018-11-12T15:48:51.555Z,10.80
2018-11-12T15:50:32.024Z,11.17
2018-11-12T15:52:06.911Z,11.87
2018-11-12T15:53:41.855Z,10.87
2018-11-12T15:55:16.841Z,12.17
2018-11-12T15:56:51.739Z,13.23
2018-11-12T15:58:26.654Z,11.17
2018-11-12T16:00:01.602Z,11.13
2018-11-12T16:01:36.613Z,12.23
2018-11-12T16:03:11.475Z,12.20
2018-11-12T16:04:46.422Z,12.37
2018-11-12T16:06:21.319Z,11.77
2018-11-12T16:07:56.183Z,12.70
2018-11-12T16:09:31.095Z,13.83
2018-11-12T16:11:06.088Z,12.63
2018-11-12T16:12:41.344Z,12.83
2018-11-12T16:14:16.279Z,14.37
2018-11-12T16:15:51.226Z,14.27
2018-11-12T16:17:26.556Z,13.67
2018-11-12T16:19:01.493Z,13.23
2018-11-12T16:20:36.443Z,13.10
2018-11-12T16:22:11.448Z,13.73
2018-11-12T16:23:46.336Z,14.27
2018-11-12T16:25:21.734Z,13.87
2018-11-12T16:26:56.663Z,14.40
2018-11-12T16:28:31.592Z,13.90
2018-11-12T16:30:07.515Z,14.43
2018-11-12T16:31:42.412Z,14.27
2018-11-12T16:33:17.368Z,14.17
2018-11-12T16:34:52.283Z,14.33
2018-11-12T16:36:27.426Z,14.40
2018-11-12T16:38:02.310Z,14.07
2018-11-12T16:39:37.398Z,14.20
2018-11-12T16:41:12.352Z,14.43
2018-11-12T16:42:48.042Z,13.47
2018-11-12T16:44:22.942Z,14.17
2018-11-12T16:45:58.300Z,16.70
2018-11-12T16:47:33.239Z,15.40
2018-11-12T16:49:08.195Z,14.70
2018-11-12T16:50:43.137Z,14.20
2018-11-12T16:52:18.126Z,14.57
2018-11-12T16:53:54.908Z,15.17
2018-11-12T16:55:30.107Z,15.53
2018-11-12T16:57:04.984Z,14.50
2018-11-12T16:58:40.019Z,14.70
2018-11-12T17:00:16.095Z,13.67
2018-11-12T17:01:50.994Z,13.50
2018-11-12T17:03:25.976Z,15.43
2018-11-12T17:05:00.868Z,14.20
2018-11-12T17:06:35.810Z,13.33
2018-11-12T17:08:10.682Z,14.30
2018-11-12T17:09:45.840Z,13.17
2018-11-12T17:11:20.874Z,14.97
2018-11-12T17:12:55.728Z,14.60
2018-11-12T17:14:30.729Z,14.40
2018-11-12T17:16:06.124Z,14.90
2018-11-12T17:17:41.299Z,14.70
2018-11-12T17:19:16.110Z,15.23
2018-11-12T17:20:51.384Z,14.40
2018-11-12T17:22:26.279Z,13.90
2018-11-12T17:24:01.511Z,14.87
2018-11-12T17:25:36.411Z,14.57
2018-11-12T17:27:11.363Z,15.07
2018-11-12T17:28:46.268Z,14.40
2018-11-12T17:30:22.038Z,12.87
2018-11-12T17:31:56.973Z,18.37
2018-11-12T17:33:31.863Z,14.93
2018-11-12T17:35:08.211Z,15.40
2018-11-12T17:36:43.410Z,14.57
2018-11-12T17:38:18.169Z,13.70
2018-11-12T17:39:53.058Z,15.00
2018-11-12T17:41:28.099Z,15.00
2018-11-12T17:43:03.048Z,15.60
2018-11-12T17:44:37.958Z,17.17
2018-11-12T17:46:12.851Z,15.13
2018-11-12T17:47:49.001Z,16.90
2018-11-12T17:49:23.887Z,15.27
2018-11-12T17:50:58.868Z,16.37
2018-11-12T17:52:33.871Z,14.37
2018-11-12T17:54:08.832Z,14.83
2018-11-12T17:55:49.339Z,15.17
2018-11-12T17:57:31.558Z,17.13
2018-11-12T17:59:06.854Z,14.80
2018-11-12T18:00:41.779Z,14.10
2018-11-12T18:02:16.691Z,15.03
2018-11-12T18:03:51.822Z,14.67
2018-11-12T18:05:26.840Z,14.97
2018-11-12T18:07:02.064Z,14.50
2018-11-12T18:08:36.971Z,14.33
2018-11-12T18:10:12.974Z,15.50
2018-11-12T18:11:48.096Z,15.53
2018-11-12T18:13:23.054Z,15.40
2018-11-12T18:14:57.979Z,14.60
2018-11-12T18:16:32.863Z,15.60
2018-11-12T18:18:07.847Z,14.27
2018-11-12T18:19:42.715Z,14.57
2018-11-12T18:21:17.619Z,14.10
2018-11-12T18:22:53.321Z,16.10
2018-11-12T18:24:28.192Z,16.97
2018-11-12T18:26:03.291Z,15.20
2018-11-12T18:27:38.658Z,15.00
2018-11-12T18:29:13.575Z,16.47
2018-11-12T18:30:48.690Z,14.73
2018-11-12T18:32:23.422Z,15.60
2018-11-12T18:33:58.435Z,15.27
2018-11-12T18:35:33.331Z,16.27
2018-11-12T18:37:08.356Z,17.07
2018-11-12T18:38:43.320Z,17.20
2018-11-12T18:40:19.766Z,18.43
2018-11-12T18:41:54.678Z,18.63
2018-11-12T18:43:29.614Z,18.90
2018-11-12T18:45:04.840Z,18.47
2018-11-12T18:46:39.751Z,18.87
2018-11-12T18:48:14.625Z,18.97
2018-11-12T18:49:49.523Z,18.30
2018-11-12T18:51:25.250Z,18.67
2018-11-12T18:53:00.166Z,17.17
2018-11-12T18:54:35.034Z,17.93
2018-11-12T18:56:10.031Z,18.47
2018-11-12T18:57:45.646Z,19.37
2018-11-12T18:59:20.487Z,17.57
2018-11-12T19:00:55.476Z,16.27
2018-11-12T19:02:30.387Z,17.10
2018-11-12T19:04:05.395Z,17.17
2018-11-12T19:05:40.299Z,19.70
2018-11-12T19:07:15.430Z,19.03
2018-11-12T19:08:50.307Z,19.23
2018-11-12T19:10:26.604Z,18.70
2018-11-12T19:12:01.582Z,19.10
2018-11-12T19:13:36.566Z,19.63
2018-11-12T19:15:13.697Z,19.93
2018-11-12T19:16:48.730Z,20.90
2018-11-12T19:18:23.649Z,21.47
2018-11-12T19:19:58.622Z,20.63
2018-11-12T19:21:33.482Z,20.60
2018-11-12T19:23:08.491Z,20.03
2018-11-12T19:24:43.411Z,18.50
2018-11-12T19:26:18.299Z,16.30
2018-11-12T19:27:53.250Z,16.90
2018-11-12T19:29:28.276Z,16.00
2018-11-12T19:31:03.240Z,15.43
2018-11-12T19:32:38.168Z,15.27
2018-11-12T19:34:13.155Z,15.70
2018-11-12T19:35:48.190Z,15.53
2018-11-12T19:37:23.117Z,16.80
2018-11-12T19:38:57.995Z,17.03
2018-11-12T19:40:33.560Z,16.13
2018-11-12T19:42:08.550Z,18.67
2018-11-12T19:43:43.440Z,18.63
2018-11-12T19:45:18.492Z,18.47
2018-11-12T19:46:53.413Z,17.87
2018-11-12T19:48:28.410Z,19.53
2018-11-12T19:50:03.357Z,13.97
2018-11-12T19:51:38.297Z,15.37
2018-11-12T19:53:13.122Z,14.03
2018-11-12T19:54:48.015Z,15.07
2018-11-12T19:56:23.005Z,14.97
2018-11-12T19:57:57.959Z,15.53
2018-11-12T19:59:32.947Z,14.23
2018-11-12T20:01:07.910Z,16.03
2018-11-12T20:02:43.857Z,15.07
2018-11-12T20:04:18.814Z,14.73
2018-11-12T20:05:53.756Z,15.93
2018-11-12T20:07:28.819Z,15.07
2018-11-12T20:09:04.739Z,14.70
2018-11-12T20:10:39.607Z,15.93
2018-11-12T20:12:14.459Z,15.20
2018-11-12T20:13:49.382Z,15.10
2018-11-12T20:15:25.319Z,16.00
2018-11-12T20:17:00.140Z,17.27
2018-11-12T20:18:35.492Z,16.90
2018-11-12T20:20:16.629Z,17.23
2018-11-12T20:21:51.524Z,16.40
2018-11-12T20:23:26.458Z,16.97
2018-11-12T20:25:01.486Z,16.13
2018-11-12T20:26:36.374Z,17.07
2018-11-12T20:28:11.489Z,16.07
2018-11-12T20:29:46.403Z,16.10
2018-11-12T20:31:21.351Z,15.97
2018-11-12T20:32:56.952Z,18.47
2018-11-12T20:34:32.207Z,17.93
2018-11-12T20:36:07.124Z,16.10
2018-11-12T20:37:42.134Z,16.60
2018-11-12T20:39:17.123Z,16.80
2018-11-12T20:40:52.247Z,16.33
2018-11-12T20:42:27.333Z,16.97
2018-11-12T20:44:02.220Z,17.87
2018-11-12T20:45:37.262Z,17.83